createdAt,value
2018-04-22T00:24:54.173Z,14.51
2018-04-22T00:27:26.821Z,14.50
2018-04-22T00:29:59.170Z,14.50
2018-04-22T00:32:31.011Z,14.48
2018-04-22T00:35:03.550Z,14.47
2018-04-22T00:37:35.712Z,14.45
2018-04-22T00:40:08.439Z,14.44
2018-04-22T00:42:41.877Z,14.44
2018-04-22T00:45:17.327Z,14.42
2018-04-22T00:47:49.992Z,14.39
2018-04-22T00:50:22.295Z,14.33
2018-04-22T00:52:54.882Z,14.30
2018-04-22T00:55:29.945Z,14.27
2018-04-22T00:58:02.817Z,14.24
2018-04-22T01:00:36.461Z,14.20
2018-04-22T01:03:09.137Z,14.17
2018-04-22T01:05:40.960Z,14.12
2018-04-22T01:08:13.255Z,14.11
2018-04-22T01:10:47.978Z,14.10
2018-04-22T01:13:19.920Z,14.07
2018-04-22T01:15:54.113Z,14.04
2018-04-22T01:18:28.175Z,14.00
2018-04-22T01:21:02.800Z,13.95
2018-04-22T01:23:35.837Z,13.93
2018-04-22T01:26:08.318Z,13.90
2018-04-22T01:28:40.901Z,13.87
2018-04-22T01:31:12.946Z,13.84
2018-04-22T01:33:44.944Z,13.81
2018-04-22T01:36:18.843Z,13.78
2018-04-22T01:38:52.667Z,13.76
2018-04-22T01:41:25.166Z,13.71
2018-04-22T01:43:58.141Z,13.68
2018-04-22T01:46:31.426Z,13.66
2018-04-22T01:49:04.100Z,13.62
2018-04-22T01:51:37.262Z,13.59
2018-04-22T01:54:10.696Z,13.57
2018-04-22T01:56:43.637Z,13.55
2018-04-22T01:59:17.522Z,13.53
2018-04-22T02:01:50.105Z,13.52
2018-04-22T02:04:24.139Z,13.48
2018-04-22T02:06:56.003Z,13.43
2018-04-22T02:09:29.657Z,13.39
2018-04-22T02:12:02.167Z,13.35
2018-04-22T02:14:35.018Z,13.32
2018-04-22T02:17:07.035Z,13.29
2018-04-22T02:19:39.856Z,13.26
2018-04-22T02:22:13.941Z,13.21
2018-04-22T02:24:47.237Z,13.21
2018-04-22T02:27:19.739Z,13.18
2018-04-22T02:29:52.036Z,13.15
2018-04-22T02:32:24.552Z,13.13
2018-04-22T02:34:57.596Z,13.12
2018-04-22T02:37:29.439Z,13.10
2018-04-22T02:40:02.142Z,13.07
2018-04-22T02:42:34.876Z,13.08
2018-04-22T02:45:07.995Z,13.06
2018-04-22T02:47:40.496Z,13.04
2018-04-22T02:50:12.357Z,13.02
2018-04-22T02:52:45.324Z,13.00
2018-04-22T02:55:18.197Z,12.93
2018-04-22T02:57:50.379Z,12.89
2018-04-22T03:00:23.276Z,12.83
2018-04-22T03:02:55.418Z,12.81
2018-04-22T03:05:28.775Z,12.78
2018-04-22T03:08:00.733Z,12.75
2018-04-22T03:10:32.773Z,12.73
2018-04-22T03:13:04.872Z,12.69
2018-04-22T03:15:37.534Z,12.66
2018-04-22T03:18:11.993Z,12.65
2018-04-22T03:20:44.438Z,12.62
2018-04-22T03:23:17.094Z,12.59
2018-04-22T03:25:49.376Z,12.56
2018-04-22T03:28:21.943Z,12.52
2018-04-22T03:30:55.456Z,12.49
2018-04-22T03:33:28.436Z,12.48
2018-04-22T03:36:01.793Z,12.44
2018-04-22T03:38:33.972Z,12.41
2018-04-22T03:41:08.453Z,12.37
2018-04-22T03:43:41.170Z,12.34
2018-04-22T03:46:13.200Z,12.32
2018-04-22T03:48:45.584Z,12.30
2018-04-22T03:51:18.113Z,12.26
2018-04-22T03:53:50.953Z,12.24
2018-04-22T03:56:24.298Z,12.21
2018-04-22T03:58:57.516Z,12.20
2018-04-22T04:01:29.340Z,12.18
2018-04-22T04:04:02.278Z,12.15
2018-04-22T04:06:34.977Z,12.11
2018-04-22T04:09:09.345Z,12.07
2018-04-22T04:11:41.896Z,12.04
2018-04-22T04:14:14.532Z,12.00
2018-04-22T04:16:47.257Z,11.96
2018-04-22T04:19:35.795Z,11.94
2018-04-22T04:22:24.416Z,11.92
2018-04-22T04:28:09.636Z,11.90
2018-04-22T04:30:43.038Z,11.94
2018-04-22T04:33:15.852Z,11.93
2018-04-22T04:35:47.774Z,11.92
2018-04-22T04:38:21.600Z,11.90
2018-04-22T04:40:54.256Z,11.91
2018-04-22T04:43:29.070Z,11.90
2018-04-22T04:46:02.235Z,11.90
2018-04-22T04:48:34.373Z,11.92
2018-04-22T04:51:06.832Z,11.93
2018-04-22T04:53:39.327Z,11.96
2018-04-22T04:56:12.136Z,11.98
2018-04-22T04:58:44.678Z,12.01
2018-04-22T05:01:17.416Z,12.06
2018-04-22T05:03:50.857Z,12.10
2018-04-22T05:06:22.656Z,12.14
2018-04-22T05:08:57.155Z,12.18
2018-04-22T05:11:30.356Z,12.24
2018-04-22T05:14:05.179Z,12.29
2018-04-22T05:16:37.918Z,12.35
2018-04-22T05:19:11.173Z,12.42
2018-04-22T05:21:43.356Z,12.48
2018-04-22T05:24:15.796Z,12.54
2018-04-22T05:26:50.089Z,12.59
2018-04-22T05:29:21.042Z,12.65
2018-04-22T05:31:53.659Z,12.72
2018-04-22T05:34:26.877Z,12.81
2018-04-22T05:37:00.314Z,12.87
2018-04-22T05:39:33.737Z,12.95
2018-04-22T05:42:07.139Z,13.04
2018-04-22T05:44:39.252Z,13.12
2018-04-22T05:47:12.537Z,13.22
2018-04-22T05:49:45.674Z,13.30
2018-04-22T05:52:18.976Z,13.41
2018-04-22T05:54:51.443Z,13.51
2018-04-22T05:57:23.879Z,13.63
2018-04-22T05:59:56.897Z,13.75
2018-04-22T06:02:28.570Z,13.86
2018-04-22T06:04:59.632Z,14.00
2018-04-22T06:07:32.441Z,14.13
2018-04-22T06:10:04.275Z,14.27
2018-04-22T06:12:35.997Z,14.41
2018-04-22T06:15:07.977Z,14.55
2018-04-22T06:17:39.733Z,14.72
2018-04-22T06:20:11.638Z,14.89
2018-04-22T06:22:45.613Z,15.06
2018-04-22T06:25:18.698Z,15.25
2018-04-22T06:27:51.233Z,15.51
2018-04-22T06:30:24.656Z,15.82
2018-04-22T06:32:58.437Z,16.18
2018-04-22T06:35:30.976Z,16.42
2018-04-22T06:38:02.904Z,16.71
2018-04-22T06:40:36.519Z,17.05
2018-04-22T06:43:08.737Z,17.47
2018-04-22T06:45:40.434Z,17.84
2018-04-22T06:48:13.056Z,18.20
2018-04-22T06:50:46.155Z,18.52
2018-04-22T06:53:19.463Z,18.74
2018-04-22T06:55:51.641Z,18.81
2018-04-22T06:58:24.020Z,18.87
2018-04-22T07:00:57.013Z,18.96
2018-04-22T07:03:28.559Z,19.07
2018-04-22T07:06:00.437Z,19.15
2018-04-22T07:08:32.338Z,19.26
2018-04-22T07:11:04.274Z,19.36
2018-04-22T07:13:36.016Z,19.46
2018-04-22T07:16:08.300Z,19.49
2018-04-22T07:18:39.615Z,19.57
2018-04-22T07:21:11.516Z,19.62
2018-04-22T07:23:43.010Z,19.70
2018-04-22T07:26:15.015Z,19.86
2018-04-22T07:28:47.261Z,20.04
2018-04-22T07:31:19.939Z,20.22
2018-04-22T07:33:52.002Z,20.36
2018-04-22T07:36:24.815Z,20.47
2018-04-22T07:38:56.477Z,20.58
2018-04-22T07:41:28.439Z,20.73
2018-04-22T07:44:00.434Z,20.84
2018-04-22T07:46:32.857Z,21.02
2018-04-22T07:49:05.379Z,21.13
2018-04-22T07:51:37.624Z,21.19
2018-04-22T07:54:10.092Z,21.32
2018-04-22T07:56:41.454Z,21.39
2018-04-22T07:59:14.018Z,21.47
2018-04-22T08:01:45.852Z,21.61
2018-04-22T08:04:17.797Z,21.74
2018-04-22T08:06:50.486Z,21.78
2018-04-22T08:09:22.918Z,22.17
2018-04-22T08:11:56.340Z,22.64
2018-04-22T08:14:30.225Z,22.89
2018-04-22T08:17:02.456Z,23.14
2018-04-22T08:19:36.459Z,23.58
2018-04-22T08:22:08.657Z,23.80
2018-04-22T08:24:40.658Z,23.94
2018-04-22T08:27:13.338Z,24.11
2018-04-22T08:29:45.401Z,24.32
2018-04-22T08:32:19.754Z,24.55
2018-04-22T08:34:54.337Z,24.73
2018-04-22T08:37:28.119Z,24.86
2018-04-22T08:40:00.876Z,24.93
2018-04-22T08:42:34.637Z,25.01
2018-04-22T08:45:11.023Z,25.12
2018-04-22T08:47:45.103Z,25.22
2018-04-22T08:50:18.794Z,25.31
2018-04-22T08:52:52.722Z,25.42
2018-04-22T08:55:26.202Z,25.50
2018-04-22T08:57:58.378Z,25.47
2018-04-22T09:00:33.973Z,25.55
2018-04-22T09:03:07.063Z,25.67
2018-04-22T09:05:41.112Z,25.70
2018-04-22T09:08:14.554Z,25.72
2018-04-22T09:10:46.873Z,25.79
2018-04-22T09:13:20.634Z,25.82
2018-04-22T09:15:53.818Z,25.94
2018-04-22T09:18:26.718Z,26.13
2018-04-22T09:21:00.255Z,26.32
2018-04-22T09:23:34.658Z,26.50
2018-04-22T09:26:08.980Z,26.67
2018-04-22T09:28:41.217Z,26.66
2018-04-22T09:31:15.455Z,26.69
2018-04-22T09:33:48.656Z,26.81
2018-04-22T09:36:21.415Z,26.93
2018-04-22T09:38:55.694Z,27.09
2018-04-22T09:41:28.974Z,27.17
2018-04-22T09:44:02.651Z,27.29
2018-04-22T09:46:36.658Z,27.46
2018-04-22T09:49:09.677Z,27.57
2018-04-22T09:51:43.582Z,27.66
2018-04-22T09:54:16.620Z,27.74
2018-04-22T09:56:50.534Z,27.79
2018-04-22T09:59:22.816Z,27.89
2018-04-22T10:01:57.897Z,27.92
2018-04-22T10:04:33.777Z,27.97
2018-04-22T10:07:08.237Z,28.07
2018-04-22T10:09:41.652Z,28.18
2018-04-22T10:12:16.257Z,28.31
2018-04-22T10:14:49.751Z,28.51
2018-04-22T10:17:23.760Z,28.55
2018-04-22T10:19:57.372Z,28.58
2018-04-22T10:22:32.817Z,28.65
2018-04-22T10:25:07.152Z,28.77
2018-04-22T10:27:41.293Z,28.90
2018-04-22T10:30:15.639Z,28.99
2018-04-22T10:32:49.737Z,29.02
2018-04-22T10:35:55.034Z,29.11
2018-04-22T10:38:28.450Z,29.17
2018-04-22T10:41:00.481Z,29.19
2018-04-22T10:43:35.535Z,29.29
2018-04-22T10:46:08.200Z,29.39
2018-04-22T10:48:40.935Z,29.46
2018-04-22T10:51:16.273Z,29.55
2018-04-22T10:53:49.216Z,29.64
2018-04-22T10:56:21.434Z,29.75
2018-04-22T10:58:57.617Z,29.82
2018-04-22T11:01:30.660Z,29.88
2018-04-22T11:04:04.238Z,29.96
2018-04-22T11:06:37.443Z,30.08
2018-04-22T11:09:11.259Z,30.20
2018-04-22T11:11:44.861Z,30.33
2018-04-22T11:14:18.935Z,30.42
2018-04-22T11:16:51.553Z,30.50
2018-04-22T11:19:25.338Z,30.52
2018-04-22T11:21:59.079Z,30.64
2018-04-22T11:24:31.121Z,30.77
2018-04-22T11:27:06.013Z,30.80
2018-04-22T11:29:38.354Z,30.77
2018-04-22T11:32:10.855Z,30.78
2018-04-22T11:34:45.693Z,30.73
2018-04-22T11:37:18.255Z,30.70
2018-04-22T11:39:52.367Z,30.74
2018-04-22T11:42:26.111Z,30.77
2018-04-22T11:45:00.060Z,30.72
2018-04-22T11:47:34.240Z,30.82
2018-04-22T11:50:08.814Z,30.69
2018-04-22T11:52:42.019Z,30.57
2018-04-22T11:55:15.116Z,30.70
2018-04-22T11:57:47.653Z,30.83
2018-04-22T12:00:21.655Z,30.67
2018-04-22T12:02:55.334Z,30.53
2018-04-22T12:05:31.095Z,30.34
2018-04-22T12:08:05.678Z,30.29
2018-04-22T12:10:38.394Z,30.25
2018-04-22T12:13:11.016Z,30.37
2018-04-22T12:15:43.476Z,30.53
2018-04-22T12:18:17.598Z,30.71
2018-04-22T12:20:51.160Z,30.79
2018-04-22T12:23:25.959Z,30.75
2018-04-22T12:26:01.120Z,30.67
2018-04-22T12:28:36.697Z,30.49
2018-04-22T12:31:08.917Z,30.52
2018-04-22T12:33:43.658Z,30.60
2018-04-22T12:36:18.341Z,30.58
2018-04-22T12:38:55.035Z,30.54
2018-04-22T12:41:29.214Z,30.61
2018-04-22T12:44:03.012Z,30.70
2018-04-22T12:46:35.838Z,30.63
2018-04-22T12:49:09.478Z,30.40
2018-04-22T12:51:43.676Z,30.19
2018-04-22T12:54:18.714Z,30.04
2018-04-22T12:56:52.818Z,30.18
2018-04-22T12:59:26.139Z,30.45
2018-04-22T13:01:58.799Z,30.70
2018-04-22T13:04:31.642Z,30.91
2018-04-22T13:07:06.082Z,31.02
2018-04-22T13:09:38.596Z,30.79
2018-04-22T13:12:13.267Z,30.55
2018-04-22T13:14:47.036Z,30.47
2018-04-22T13:17:20.735Z,30.42
2018-04-22T13:19:52.956Z,30.46
2018-04-22T13:22:26.436Z,30.49
2018-04-22T13:25:00.470Z,30.53
2018-04-22T13:27:40.181Z,30.43
2018-04-22T13:30:12.838Z,30.26
2018-04-22T13:32:45.419Z,30.30
2018-04-22T13:35:19.153Z,30.61
2018-04-22T13:37:52.182Z,30.90
2018-04-22T13:40:26.917Z,31.12
2018-04-22T13:43:00.257Z,30.96
2018-04-22T13:45:34.238Z,30.63
2018-04-22T13:48:07.742Z,30.59
2018-04-22T13:50:43.810Z,30.74
2018-04-22T13:53:18.166Z,30.93
2018-04-22T13:55:55.192Z,30.96
2018-04-22T13:58:31.331Z,31.08
2018-04-22T14:01:07.779Z,31.16
2018-04-22T14:03:41.873Z,31.27
2018-04-22T14:06:15.975Z,31.30
2018-04-22T14:08:54.913Z,31.37
2018-04-22T14:11:31.036Z,31.45
2018-04-22T14:14:04.613Z,31.49
2018-04-22T14:16:38.154Z,31.49
2018-04-22T14:19:12.163Z,31.49
2018-04-22T14:21:49.035Z,31.52
2018-04-22T14:24:21.474Z,31.53
2018-04-22T14:26:56.298Z,31.56
2018-04-22T14:29:30.773Z,31.38
2018-04-22T14:32:04.093Z,31.30
2018-04-22T14:34:40.799Z,31.25
2018-04-22T14:37:16.715Z,31.23
2018-04-22T14:39:50.957Z,31.21
2018-04-22T14:42:27.333Z,31.20
2018-04-22T14:45:16.059Z,31.20
2018-04-22T14:47:48.908Z,31.14
2018-04-22T14:50:21.671Z,31.13
2018-04-22T14:52:58.616Z,31.11
2018-04-22T14:55:33.876Z,31.04
2018-04-22T14:58:08.617Z,31.03
2018-04-22T15:00:40.092Z,31.00
2018-04-22T15:03:14.232Z,30.91
2018-04-22T15:05:47.533Z,30.88
2018-04-22T15:08:22.777Z,30.87
2018-04-22T15:10:55.818Z,30.80
2018-04-22T15:13:28.102Z,30.71
2018-04-22T15:16:01.738Z,30.69
2018-04-22T15:57:06.912Z,29.83
2018-04-22T15:59:40.938Z,29.74
2018-04-22T16:02:13.648Z,29.63
2018-04-22T16:04:48.879Z,29.51
2018-04-22T16:07:21.696Z,29.43
2018-04-22T16:09:56.529Z,29.35
2018-04-22T16:12:31.240Z,29.28
2018-04-22T16:15:04.093Z,29.21
2018-04-22T16:17:39.617Z,29.18
2018-04-22T17:22:50.268Z,25.91
2018-04-22T17:25:23.623Z,25.81
2018-04-22T17:27:56.868Z,25.69
2018-04-22T17:30:30.224Z,25.56
2018-04-22T17:33:05.298Z,25.43
2018-04-22T17:35:37.843Z,25.29
2018-04-22T17:38:12.705Z,25.18
2018-04-22T17:40:45.421Z,25.03
2018-04-22T17:43:19.764Z,24.89
2018-04-22T17:45:55.541Z,24.75
2018-04-22T17:48:28.540Z,24.62
2018-04-22T17:51:01.285Z,24.55
2018-04-22T17:53:34.460Z,24.47
2018-04-22T17:56:07.425Z,24.43
2018-04-22T17:58:40.102Z,24.36
2018-04-22T18:01:13.686Z,24.30
2018-04-22T18:03:46.985Z,24.25
2018-04-22T18:06:23.524Z,24.21
2018-04-22T18:08:57.923Z,24.17
2018-04-22T18:11:34.945Z,24.09
2018-04-22T18:14:09.843Z,24.02
2018-04-22T18:16:44.121Z,23.93
2018-04-22T18:19:17.802Z,23.80
2018-04-22T19:30:05.983Z,21.54
2018-04-22T19:32:40.322Z,21.55
2018-04-22T19:35:14.704Z,21.48
2018-04-22T19:37:47.685Z,21.37
2018-04-22T19:40:20.471Z,21.20
2018-04-22T22:31:09.057Z,18.33
2018-04-22T22:33:40.817Z,18.38
2018-04-22T22:36:11.362Z,18.50
2018-04-22T22:38:42.030Z,18.58
2018-04-22T22:41:14.807Z,18.62
2018-04-22T22:43:47.897Z,18.59
2018-04-22T22:46:20.036Z,18.54
2018-04-22T22:48:52.581Z,18.53
2018-04-22T22:51:25.489Z,18.53
2018-04-22T22:53:59.022Z,18.51
2018-04-22T22:56:31.624Z,18.46
2018-04-22T22:59:04.365Z,18.40
2018-04-22T23:01:37.681Z,18.34
2018-04-22T23:04:10.444Z,18.30
2018-04-22T23:06:43.065Z,18.25
2018-04-22T23:09:20.704Z,18.25
2018-04-22T23:11:53.154Z,18.23
2018-04-22T23:14:28.101Z,18.22
2018-04-22T23:17:01.608Z,18.18
2018-04-22T23:19:34.501Z,18.12
2018-04-22T23:22:06.642Z,18.05
2018-04-22T23:24:39.321Z,18.02
2018-04-22T23:27:12.046Z,17.97
2018-04-22T23:29:43.940Z,17.93
2018-04-22T23:32:16.924Z,17.91
2018-04-22T23:34:49.444Z,17.89
2018-04-22T23:37:21.408Z,17.88
2018-04-22T23:39:54.524Z,17.86
2018-04-22T23:42:27.382Z,17.85
2018-04-22T23:45:00.648Z,17.84
2018-04-22T23:47:34.843Z,17.84
2018-04-22T23:50:07.183Z,17.81
2018-04-22T23:52:39.782Z,17.80
2018-04-22T23:55:12.164Z,17.79
2018-04-22T23:57:44.741Z,17.78
